Time;durP1;ratioP1;P1;durP2;ratioP2;P2;SDS_P1;SDS_P2;PMS_P1;PMS_P2;Temp;Humidity;BMP_temperature;BMP_pressure;BME280_temperature;BME280_humidity;BME280_pressure;Samples;Min_cycle;Max_cycle;Signal;HPM_P1;HPM_P2
2022/01/14 00:01:46;;;;;;;27.77;11.68;;;4.90;58.30;;;;;;6289542;28;20089;-81
2022/01/14 00:04:47;;;;;;;25.13;10.82;;;4.90;58.30;;;;;;6285795;28;20032;-80
2022/01/14 00:07:48;;;;;;;28.50;10.95;;;4.90;58.30;;;;;;6284513;28;20048;-81
2022/01/14 00:10:50;;;;;;;32.40;12.60;;;4.80;58.30;;;;;;6297835;28;20039;-81
2022/01/14 00:13:59;;;;;;;24.75;10.15;;;4.70;58.40;;;;;;6303544;28;20066;-83
2022/01/14 00:17:01;;;;;;;20.67;10.18;;;4.70;58.50;;;;;;6286678;28;20058;-80
2022/01/14 00:20:03;;;;;;;24.13;11.30;;;4.70;58.60;;;;;;6321007;28;20136;-81
2022/01/14 00:23:06;;;;;;;40.40;11.10;;;4.60;58.80;;;;;;6320112;28;20402;-81
2022/01/14 00:32:57;;;;;;;29.40;11.38;;;4.50;59.30;;;;;;6303287;28;20021;-80
2022/01/14 00:35:58;;;;;;;28.75;12.05;;;4.40;60.10;;;;;;6302667;28;20119;-82
2022/01/14 00:39:00;;;;;;;24.00;11.52;;;4.40;59.70;;;;;;6317126;28;20042;-81
2022/01/14 00:42:02;;;;;;;34.22;11.05;;;4.30;59.70;;;;;;6319839;28;20112;-81
2022/01/14 00:45:07;;;;;;;25.10;10.20;;;4.40;59.80;;;;;;6301327;28;20058;-81
2022/01/14 00:48:09;;;;;;;25.67;11.00;;;4.40;59.70;;;;;;6301811;28;20035;-81
2022/01/14 00:51:10;;;;;;;29.65;10.73;;;4.40;59.60;;;;;;6319734;28;20095;-81
2022/01/14 00:54:12;;;;;;;27.42;11.85;;;4.40;59.50;;;;;;6319400;28;20400;-81
2022/01/14 00:57:25;;;;;;;28.13;11.23;;;4.40;59.50;;;;;;6301960;28;20473;-81
2022/01/14 01:00:35;;;;;;;30.13;11.93;;;4.50;59.50;;;;;;6318501;28;20054;-80
2022/01/14 01:03:36;;;;;;;28.13;11.88;;;4.60;59.40;;;;;;6285006;28;20122;-81
2022/01/14 01:06:38;;;;;;;28.92;10.85;;;4.60;59.30;;;;;;6317458;28;20024;-81
2022/01/14 01:09:45;;;;;;;27.52;10.48;;;4.60;59.30;;;;;;6318148;28;20035;-80
2022/01/14 01:15:50;;;;;;;26.73;10.02;;;4.50;59.40;;;;;;6319388;28;20042;-80
2022/01/14 01:18:51;;;;;;;23.13;9.77;;;4.50;59.50;;;;;;6318763;28;20531;-80
2022/01/14 01:21:53;;;;;;;22.25;9.82;;;4.50;59.50;;;;;;6284696;28;20123;-80
2022/01/14 01:25:07;;;;;;;28.45;10.23;;;4.40;59.60;;;;;;6286685;28;20066;-81
2022/01/14 01:28:08;;;;;;;28.67;11.13;;;4.40;59.80;;;;;;6312986;28;20049;-81
2022/01/14 01:31:35;;;;;;;25.70;11.45;;;4.30;59.90;;;;;;6286540;28;20126;-82
2022/01/14 01:34:30;;;;;;;32.67;11.43;;;4.30;60.00;;;;;;6320189;28;20020;-82
2022/01/14 01:37:33;;;;;;;34.17;12.27;;;4.30;60.10;;;;;;6320975;28;20054;-80
2022/01/14 01:40:36;;;;;;;27.17;9.75;;;4.30;60.30;;;;;;6328227;28;20024;-80
2022/01/14 01:43:37;;;;;;;26.70;10.45;;;4.30;60.20;;;;;;6298395;28;20089;-81
2022/01/14 01:46:40;;;;;;;24.58;10.20;;;4.20;60.30;;;;;;6267973;28;20062;-80
2022/01/14 01:49:42;;;;;;;28.20;11.73;;;4.20;60.40;;;;;;6303275;28;20352;-80
2022/01/14 01:52:43;;;;;;;28.75;11.23;;;4.20;60.40;;;;;;6320683;28;20032;-80
2022/01/14 01:55:44;;;;;;;27.77;9.93;;;4.10;60.50;;;;;;6279392;28;20075;-81
2022/01/14 01:58:46;;;;;;;32.00;11.02;;;4.00;60.70;;;;;;6284054;28;20452;-80
2022/01/14 02:01:48;;;;;;;31.40;9.82;;;4.00;60.80;;;;;;6300043;28;20135;-81
2022/01/14 02:04:49;;;;;;;20.63;9.10;;;4.00;61.00;;;;;;6300987;28;20399;-81
2022/01/14 02:07:51;;;;;;;24.83;9.43;;;4.00;61.20;;;;;;6296654;28;20025;-81
2022/01/14 02:10:52;;;;;;;21.55;10.18;;;4.00;61.30;;;;;;6318826;28;20024;-82
2022/01/14 02:13:57;;;;;;;37.80;12.43;;;4.00;61.20;;;;;;6283947;28;20454;-82
2022/01/14 02:23:32;;;;;;;26.67;11.25;;;4.00;61.40;;;;;;6316507;28;20048;-81
2022/01/14 02:26:44;;;;;;;25.48;9.75;;;4.00;61.40;;;;;;6316279;28;20031;-80
2022/01/14 02:29:45;;;;;;;19.00;8.60;;;4.00;61.40;;;;;;6294367;28;20024;-82
2022/01/14 02:32:47;;;;;;;28.58;9.95;;;4.00;61.30;;;;;;6283261;28;20035;-83
2022/01/14 02:35:50;;;;;;;24.25;9.40;;;4.00;61.20;;;;;;6317799;28;20078;-81
2022/01/14 02:38:52;;;;;;;25.42;11.63;;;4.00;61.20;;;;;;6294817;28;20412;-81
2022/01/14 02:41:54;;;;;;;22.50;10.73;;;4.00;61.20;;;;;;6319185;28;20063;-82
2022/01/14 02:45:01;;;;;;;25.73;11.35;;;4.00;61.30;;;;;;6320925;28;20055;-82
2022/01/14 02:48:04;;;;;;;15.27;6.43;;;3.90;61.30;;;;;;6300567;28;20026;-81
2022/01/14 02:51:12;;;;;;;22.58;10.10;;;3.90;61.30;;;;;;6317756;28;20099;-80
2022/01/14 02:54:21;;;;;;;19.45;9.93;;;3.90;61.30;;;;;;6318765;28;20024;-82
2022/01/14 02:57:23;;;;;;;28.02;9.93;;;3.90;61.40;;;;;;6318066;28;20024;-78
2022/01/14 03:00:30;;;;;;;24.25;9.93;;;3.90;61.40;;;;;;6308728;28;20035;-80
2022/01/14 03:03:32;;;;;;;17.70;9.50;;;3.90;61.40;;;;;;6307160;28;20028;-80
2022/01/14 03:06:33;;;;;;;23.00;9.27;;;3.90;61.40;;;;;;6321853;28;20039;-81
2022/01/14 03:09:36;;;;;;;21.15;9.45;;;3.80;61.40;;;;;;6301280;28;20039;-80
2022/01/14 03:12:41;;;;;;;25.33;10.18;;;3.80;61.50;;;;;;6286638;28;20336;-81
2022/01/14 03:15:42;;;;;;;25.02;10.93;;;3.70;61.60;;;;;;6304535;28;20059;-82
2022/01/14 03:18:47;;;;;;;21.80;10.80;;;3.80;61.90;;;;;;6288371;28;20530;-80
2022/01/14 03:21:51;;;;;;;18.05;9.52;;;3.70;61.90;;;;;;6302345;28;20059;-80
2022/01/14 03:27:54;;;;;;;17.70;9.75;;;3.70;62.10;;;;;;6315919;28;20318;-80
2022/01/14 03:30:55;;;;;;;18.92;8.32;;;3.60;62.10;;;;;;6287851;28;20028;-82
2022/01/14 03:33:56;;;;;;;21.95;11.20;;;3.70;62.20;;;;;;6290024;28;20069;-81
2022/01/14 03:36:58;;;;;;;21.00;9.45;;;3.60;62.20;;;;;;6323429;28;20412;-82
2022/01/14 03:39:59;;;;;;;25.60;10.88;;;3.60;62.50;;;;;;6303399;28;20063;-80
2022/01/14 03:43:00;;;;;;;32.97;10.07;;;3.60;62.50;;;;;;6304333;28;20100;-81
2022/01/14 03:46:01;;;;;;;24.52;9.82;;;3.60;62.60;;;;;;6296819;28;20027;-81
2022/01/14 03:49:02;;;;;;;23.08;9.32;;;3.60;62.60;;;;;;6286963;28;20024;-81
2022/01/14 03:52:03;;;;;;;24.85;9.63;;;3.60;62.50;;;;;;6302972;28;20017;-80
2022/01/14 03:55:05;;;;;;;22.63;8.93;;;3.60;62.50;;;;;;6304035;28;20024;-80
2022/01/14 03:58:07;;;;;;;19.23;9.57;;;3.60;62.50;;;;;;6303580;28;20024;-82
2022/01/14 04:01:12;;;;;;;18.23;9.27;;;3.70;62.40;;;;;;6320460;28;20732;-81
2022/01/14 04:04:13;;;;;;;21.50;7.93;;;3.70;62.40;;;;;;6303311;28;20153;-80
2022/01/14 04:07:15;;;;;;;31.65;10.82;;;3.70;62.20;;;;;;6302159;28;20063;-80
2022/01/14 04:10:18;;;;;;;21.92;8.85;;;3.60;62.30;;;;;;6301396;28;20028;-80
2022/01/14 04:13:23;;;;;;;21.67;9.50;;;3.60;62.40;;;;;;6286413;28;20032;-81
2022/01/14 04:16:27;;;;;;;19.05;8.15;;;3.70;62.50;;;;;;6302761;28;20054;-80
2022/01/14 04:19:30;;;;;;;36.70;9.10;;;3.70;62.40;;;;;;6319226;28;20119;-81
2022/01/14 04:22:31;;;;;;;20.70;8.70;;;3.70;62.40;;;;;;6319182;28;20052;-80
2022/01/14 04:25:35;;;;;;;19.73;9.50;;;3.60;62.20;;;;;;6300979;28;20357;-81
2022/01/14 04:28:38;;;;;;;21.92;9.30;;;3.60;62.40;;;;;;6301225;28;20060;-81
2022/01/14 04:31:40;;;;;;;21.85;9.88;;;3.50;62.40;;;;;;6302488;28;20078;-81
2022/01/14 04:34:41;;;;;;;39.08;10.45;;;3.50;62.60;;;;;;6319205;28;20052;-82
2022/01/14 04:37:43;;;;;;;18.83;8.55;;;3.40;62.70;;;;;;6319662;28;20032;-80
2022/01/14 04:40:44;;;;;;;29.08;10.20;;;3.50;62.80;;;;;;6300652;28;20028;-81
2022/01/14 04:43:45;;;;;;;26.80;10.70;;;3.40;62.60;;;;;;6319420;28;20028;-82
2022/01/14 04:47:00;;;;;;;30.98;11.02;;;3.40;62.70;;;;;;6300981;28;20028;-83
2022/01/14 04:50:02;;;;;;;23.10;9.05;;;3.40;62.70;;;;;;6319131;28;20134;-82
2022/01/14 04:53:07;;;;;;;18.23;8.32;;;3.30;62.80;;;;;;6301165;28;20056;-80
2022/01/14 04:56:08;;;;;;;25.10;11.43;;;3.40;63.80;;;;;;6318789;28;20024;-81
2022/01/14 04:59:09;;;;;;;18.08;8.40;;;3.40;62.90;;;;;;6318731;28;20470;-81
2022/01/14 05:02:11;;;;;;;21.13;8.55;;;3.40;63.30;;;;;;6300478;28;20053;-82
2022/01/14 05:05:15;;;;;;;13.70;6.95;;;3.30;62.80;;;;;;6300757;28;20050;-80
2022/01/14 05:08:24;;;;;;;22.13;10.55;;;3.30;63.00;;;;;;6317679;28;20058;-81
2022/01/14 05:11:37;;;;;;;27.52;8.93;;;3.30;63.10;;;;;;6317688;28;20097;-80
2022/01/14 05:14:39;;;;;;;23.70;9.30;;;3.30;63.10;;;;;;6282210;28;20679;-81
2022/01/14 05:17:42;;;;;;;20.98;9.43;;;3.30;63.10;;;;;;6300347;28;20451;-81
2022/01/14 05:20:43;;;;;;;20.60;9.52;;;3.20;63.20;;;;;;6283902;28;20028;-81
2022/01/14 05:23:44;;;;;;;21.50;7.72;;;3.30;63.20;;;;;;6239773;28;1268998;-82
2022/01/14 05:26:45;;;;;;;29.25;9.75;;;3.20;63.20;;;;;;6319416;28;20035;-81
2022/01/14 05:29:47;;;;;;;22.35;9.85;;;3.20;63.30;;;;;;6319773;28;20016;-81
2022/01/14 05:32:52;;;;;;;25.48;10.07;;;3.10;63.50;;;;;;6300637;28;20024;-81
2022/01/14 05:35:53;;;;;;;19.70;9.27;;;3.10;63.60;;;;;;6301589;28;20070;-81
2022/01/14 05:38:54;;;;;;;23.90;8.90;;;3.10;63.50;;;;;;6294319;28;20092;-81
2022/01/14 05:41:56;;;;;;;18.95;8.88;;;3.20;63.60;;;;;;6330805;28;20020;-80
2022/01/14 05:44:57;;;;;;;17.58;9.07;;;3.20;63.50;;;;;;6342378;28;20035;-80
2022/01/14 05:47:58;;;;;;;19.20;7.82;;;3.20;63.50;;;;;;6316607;28;20024;-80
2022/01/14 05:50:59;;;;;;;18.75;8.52;;;3.20;63.50;;;;;;6307009;28;20024;-81
2022/01/14 05:54:00;;;;;;;15.82;7.82;;;3.20;63.40;;;;;;6299922;28;20032;-81
2022/01/14 05:57:01;;;;;;;24.08;9.85;;;3.20;63.40;;;;;;6301039;28;20583;-81
2022/01/14 06:00:05;;;;;;;20.25;10.52;;;3.20;63.50;;;;;;6297946;28;20031;-80
2022/01/14 06:03:06;;;;;;;23.48;9.73;;;3.20;63.40;;;;;;6283587;28;20224;-81
2022/01/14 06:06:07;;;;;;;27.88;7.82;;;3.20;63.40;;;;;;6283398;28;20051;-82
2022/01/14 06:09:08;;;;;;;19.08;7.97;;;3.20;63.30;;;;;;6301484;28;20675;-81
2022/01/14 06:12:10;;;;;;;23.73;9.18;;;3.20;63.30;;;;;;6283744;28;20028;-82
2022/01/14 06:15:11;;;;;;;15.55;7.05;;;3.30;63.30;;;;;;6285501;28;20020;-83
2022/01/14 06:18:12;;;;;;;31.98;10.45;;;3.30;64.10;;;;;;6268261;28;20043;-82
2022/01/14 06:21:15;;;;;;;21.90;9.40;;;3.30;63.10;;;;;;6300772;28;20035;-80
2022/01/14 06:24:16;;;;;;;19.70;8.73;;;3.20;63.00;;;;;;6291769;28;20079;-80
2022/01/14 06:27:17;;;;;;;26.60;9.05;;;3.10;63.10;;;;;;6292327;28;20028;-81
2022/01/14 06:30:18;;;;;;;18.17;7.70;;;3.10;63.30;;;;;;6284860;28;20037;-79
2022/01/14 06:33:19;;;;;;;17.88;9.30;;;3.10;63.30;;;;;;6291548;28;20047;-80
2022/01/14 06:36:21;;;;;;;18.17;9.27;;;3.20;63.50;;;;;;6290767;28;20060;-82
2022/01/14 06:39:22;;;;;;;19.38;8.80;;;3.10;63.50;;;;;;6287995;28;20112;-82
2022/01/14 06:42:23;;;;;;;20.42;9.07;;;3.10;63.60;;;;;;6288623;28;20033;-83
2022/01/14 06:45:24;;;;;;;16.77;7.95;;;3.10;63.80;;;;;;6294771;28;20081;-77
2022/01/14 06:48:25;;;;;;;19.33;8.43;;;3.10;63.80;;;;;;6294808;28;20374;-77
2022/01/14 06:51:27;;;;;;;19.67;10.13;;;3.10;63.80;;;;;;6297382;28;20064;-76
2022/01/14 06:54:28;;;;;;;22.70;9.00;;;3.10;63.80;;;;;;6295161;28;20033;-77
2022/01/14 06:57:29;;;;;;;17.55;8.88;;;3.10;63.80;;;;;;6278905;28;20613;-78
2022/01/14 07:00:32;;;;;;;21.98;8.15;;;3.10;63.70;;;;;;6296150;28;20043;-74
2022/01/14 07:03:34;;;;;;;21.77;8.80;;;3.10;63.60;;;;;;6292500;28;20113;-77
2022/01/14 07:06:35;;;;;;;19.27;9.35;;;3.10;63.60;;;;;;6293740;28;20081;-77
2022/01/14 07:09:38;;;;;;;23.20;10.20;;;3.10;63.50;;;;;;6294793;28;20602;-78
2022/01/14 07:12:41;;;;;;;22.45;9.15;;;3.00;63.60;;;;;;6295880;28;20032;-76
2022/01/14 07:15:42;;;;;;;18.52;8.40;;;3.00;63.60;;;;;;6295807;28;20468;-76
2022/01/14 07:18:46;;;;;;;17.20;7.65;;;3.00;63.80;;;;;;6295669;28;20524;-77
2022/01/14 07:21:47;;;;;;;22.50;10.43;;;3.00;63.90;;;;;;6298521;28;20047;-77
2022/01/14 07:24:48;;;;;;;25.58;9.90;;;3.00;63.90;;;;;;6304592;28;20544;-77
2022/01/14 07:27:50;;;;;;;24.83;8.38;;;3.00;64.00;;;;;;6315045;28;20088;-75
2022/01/14 07:30:52;;;;;;;19.40;8.98;;;3.00;64.00;;;;;;6298696;28;20020;-76
2022/01/14 07:33:53;;;;;;;26.67;9.25;;;3.10;64.00;;;;;;6323105;28;20024;-77
2022/01/14 07:36:54;;;;;;;27.75;10.98;;;3.10;63.90;;;;;;6311832;28;20039;-77
2022/01/14 07:39:55;;;;;;;17.55;8.73;;;3.10;63.80;;;;;;6336671;28;20031;-76
2022/01/14 07:42:56;;;;;;;31.85;9.23;;;3.10;63.80;;;;;;6311543;28;20028;-77
2022/01/14 07:45:57;;;;;;;22.40;8.07;;;3.10;63.70;;;;;;6322034;28;20068;-76
2022/01/14 07:48:59;;;;;;;20.48;8.90;;;3.10;63.60;;;;;;6303944;28;20621;-75
2022/01/14 07:52:03;;;;;;;27.17;10.27;;;3.00;63.50;;;;;;6303940;28;20039;-77
2022/01/14 07:55:05;;;;;;;18.88;9.02;;;3.00;63.80;;;;;;6321461;28;20344;-76
2022/01/14 07:58:06;;;;;;;21.58;10.27;;;2.90;63.90;;;;;;6321045;28;20020;-77
2022/01/14 08:01:08;;;;;;;24.33;10.10;;;2.90;64.10;;;;;;6302835;28;20020;-76
2022/01/14 08:04:09;;;;;;;21.98;9.52;;;3.00;64.20;;;;;;6320731;28;20019;-76
2022/01/14 08:07:11;;;;;;;27.73;10.13;;;2.90;64.10;;;;;;6302549;28;20167;-77
2022/01/14 08:10:14;;;;;;;22.23;10.15;;;3.00;64.40;;;;;;6319626;28;20118;-77
2022/01/14 08:13:15;;;;;;;20.50;8.98;;;3.10;64.50;;;;;;6302613;28;20052;-76
2022/01/14 08:16:17;;;;;;;26.05;9.43;;;3.20;64.20;;;;;;6313412;28;20024;-77
2022/01/14 08:19:18;;;;;;;27.20;10.07;;;3.30;63.80;;;;;;6320318;28;20020;-76
2022/01/14 08:22:19;;;;;;;22.02;10.63;;;3.40;63.50;;;;;;6319799;28;20406;-77
2022/01/14 08:25:20;;;;;;;24.65;10.10;;;3.50;63.40;;;;;;6285520;28;20122;-76
2022/01/14 08:28:26;;;;;;;21.65;9.43;;;3.50;63.10;;;;;;6301798;28;20024;-77
2022/01/14 08:31:27;;;;;;;24.35;11.00;;;3.60;62.80;;;;;;6285079;28;20028;-77
2022/01/14 08:34:29;;;;;;;25.20;9.23;;;3.60;62.60;;;;;;6301819;28;20169;-76
2022/01/14 08:37:30;;;;;;;25.08;9.00;;;3.60;62.50;;;;;;6318275;28;20032;-78
2022/01/14 08:40:32;;;;;;;13.50;8.35;;;3.70;62.40;;;;;;6318530;28;20020;-78
2022/01/14 08:43:33;;;;;;;19.13;9.15;;;3.70;62.20;;;;;;6318130;28;20111;-77
2022/01/14 08:46:34;;;;;;;27.85;10.27;;;3.70;62.10;;;;;;6284125;28;20467;-76
2022/01/14 08:49:40;;;;;;;17.05;9.05;;;3.70;62.20;;;;;;6299017;28;20031;-77
2022/01/14 08:52:41;;;;;;;27.70;10.85;;;3.70;62.10;;;;;;6300958;28;20119;-79
2022/01/14 08:55:42;;;;;;;30.45;12.73;;;3.80;62.00;;;;;;6311757;28;20024;-76
2022/01/14 08:58:44;;;;;;;24.50;12.88;;;4.30;62.50;;;;;;6293988;28;20316;-77
2022/01/14 09:01:46;;;;;;;30.85;11.85;;;3.80;62.40;;;;;;6319121;28;20047;-78
2022/01/14 09:04:47;;;;;;;19.73;9.15;;;3.90;62.50;;;;;;6319428;28;20505;-78
2022/01/14 09:07:49;;;;;;;27.17;12.80;;;4.10;62.30;;;;;;6298725;28;20085;-77
2022/01/14 09:10:50;;;;;;;43.08;11.27;;;4.20;62.00;;;;;;6318925;28;20067;-77
2022/01/14 09:13:51;;;;;;;28.50;11.27;;;4.30;61.80;;;;;;6317681;28;20472;-76
2022/01/14 09:16:52;;;;;;;22.67;10.40;;;4.30;61.50;;;;;;6301122;28;20585;-77
2022/01/14 09:19:53;;;;;;;26.77;10.98;;;4.40;61.40;;;;;;6300732;28;20024;-78
2022/01/14 09:22:57;;;;;;;22.52;11.05;;;4.50;61.20;;;;;;6300995;28;20508;-77
2022/01/14 09:25:58;;;;;;;18.83;7.93;;;4.50;60.90;;;;;;6299325;28;20036;-78
2022/01/14 09:29:01;;;;;;;22.65;10.38;;;4.60;60.90;;;;;;6297900;28;20028;-77
2022/01/14 09:32:02;;;;;;;26.10;10.30;;;4.70;60.80;;;;;;6297330;28;20028;-76
2022/01/14 09:35:06;;;;;;;39.72;12.70;;;4.70;60.70;;;;;;6318482;28;20139;-77
2022/01/14 09:38:07;;;;;;;30.17;12.55;;;4.90;60.80;;;;;;6296496;28;20032;-76
2022/01/14 09:41:09;;;;;;;27.63;9.68;;;5.00;60.50;;;;;;6300252;28;20036;-77
2022/01/14 09:44:14;;;;;;;25.83;12.10;;;5.10;60.20;;;;;;6318760;28;20578;-77
2022/01/14 09:47:21;;;;;;;20.75;9.57;;;5.20;60.20;;;;;;6316866;28;20385;-78
2022/01/14 09:50:23;;;;;;;20.85;10.63;;;5.20;59.90;;;;;;6300320;28;20062;-76
2022/01/14 09:53:26;;;;;;;32.90;11.80;;;5.20;59.60;;;;;;6318875;28;20039;-77
2022/01/14 09:56:27;;;;;;;29.27;13.43;;;5.20;59.50;;;;;;6316662;28;20132;-77
2022/01/14 09:59:28;;;;;;;29.63;10.93;;;5.20;59.30;;;;;;6317775;28;20036;-76
2022/01/14 10:02:35;;;;;;;26.63;11.52;;;5.30;59.50;;;;;;6299850;28;20085;-76
2022/01/14 10:05:39;;;;;;;57.97;16.48;;;5.40;59.40;;;;;;6298245;28;20040;-77
2022/01/14 10:08:43;;;;;;;39.13;14.00;;;5.40;59.30;;;;;;6316089;28;20225;-77
2022/01/14 10:12:03;;;;;;;31.83;12.85;;;5.60;59.40;;;;;;6317912;28;20107;-76
2022/01/14 10:15:09;;;;;;;24.42;11.73;;;5.80;59.00;;;;;;6299821;28;20024;-76
2022/01/14 10:18:12;;;;;;;29.67;10.80;;;6.00;58.40;;;;;;6316376;28;20624;-76
2022/01/14 10:21:13;;;;;;;27.75;10.75;;;6.10;58.00;;;;;;6317293;28;20236;-77
2022/01/14 10:24:15;;;;;;;29.77;12.00;;;6.20;57.80;;;;;;6273805;28;20144;-76
2022/01/14 10:27:28;;;;;;;29.35;12.65;;;6.40;57.60;;;;;;6274689;28;20025;-77
2022/01/14 10:30:32;;;;;;;22.30;9.35;;;6.50;57.30;;;;;;6308286;28;20035;-76
2022/01/14 10:33:33;;;;;;;25.95;10.98;;;6.70;56.90;;;;;;6274807;28;20031;-77
2022/01/14 10:36:35;;;;;;;34.65;11.23;;;6.90;56.40;;;;;;6291741;28;20646;-77
2022/01/14 10:39:49;;;;;;;30.33;13.00;;;7.10;56.40;;;;;;6287906;28;20036;-76
2022/01/14 10:42:58;;;;;;;31.00;10.40;;;7.40;56.20;;;;;;6290457;28;20029;-78
2022/01/14 10:46:03;;;;;;;29.80;11.15;;;7.60;55.60;;;;;;6290570;28;20035;-76
2022/01/14 10:49:04;;;;;;;26.52;11.70;;;7.80;54.90;;;;;;6288571;28;20037;-77
2022/01/14 10:52:14;;;;;;;33.13;13.48;;;8.10;54.10;;;;;;6290661;28;20024;-78
2022/01/14 10:55:31;;;;;;;22.98;10.25;;;8.30;53.40;;;;;;6286887;28;20422;-77
2022/01/14 10:58:38;;;;;;;39.10;15.35;;;8.50;53.10;;;;;;6287843;28;20047;-77
2022/01/14 11:01:39;;;;;;;28.58;12.32;;;8.80;52.70;;;;;;6291038;28;20024;-77
2022/01/14 11:05:00;;;;;;;25.17;10.20;;;9.20;52.20;;;;;;6273725;28;20079;-77
2022/01/14 11:08:03;;;;;;;47.28;15.95;;;9.60;51.20;;;;;;6286490;28;20056;-78
2022/01/14 11:11:04;;;;;;;28.38;11.65;;;9.90;50.00;;;;;;6289055;28;20031;-76
2022/01/14 11:14:06;;;;;;;42.55;15.55;;;10.30;49.50;;;;;;6274074;28;20032;-77
2022/01/14 11:17:09;;;;;;;51.40;19.95;;;10.70;48.90;;;;;;6290217;28;20609;-77
2022/01/14 11:20:11;;;;;;;62.40;19.45;;;11.20;47.90;;;;;;6291856;28;20445;-77
2022/01/14 11:23:15;;;;;;;53.33;19.25;;;11.60;46.40;;;;;;6290577;28;20621;-79
2022/01/14 11:26:19;;;;;;;40.17;17.23;;;12.00;45.50;;;;;;6291891;28;20039;-77
2022/01/14 11:29:23;;;;;;;57.03;21.95;;;12.40;44.40;;;;;;6259650;28;20032;-78
2022/01/14 11:32:25;;;;;;;47.75;20.20;;;12.80;43.70;;;;;;6291621;28;20029;-78
2022/01/14 11:35:26;;;;;;;64.00;25.60;;;13.10;42.60;;;;;;6295714;28;20032;-77
2022/01/14 11:38:38;;;;;;;49.92;21.80;;;13.50;41.70;;;;;;6298035;28;20024;-77
2022/01/14 11:41:51;;;;;;;67.72;22.05;;;13.90;41.20;;;;;;6305178;28;20520;-77
2022/01/14 11:48:00;;;;;;;63.70;24.55;;;14.80;40.00;;;;;;6297692;28;20710;-79
2022/01/14 11:51:04;;;;;;;53.15;19.45;;;15.20;39.30;;;;;;6296043;28;20043;-77
2022/01/14 11:54:07;;;;;;;41.78;16.95;;;15.70;38.50;;;;;;6296064;28;20085;-77
2022/01/14 11:57:11;;;;;;;39.03;15.23;;;16.00;37.70;;;;;;6294183;28;20115;-77
2022/01/14 12:00:30;;;;;;;51.33;19.25;;;16.40;36.70;;;;;;6295979;28;20388;-78
2022/01/14 12:03:31;;;;;;;37.30;15.95;;;16.30;36.30;;;;;;6295366;28;20032;-78
2022/01/14 12:06:51;;;;;;;50.25;18.42;;;15.50;36.50;;;;;;6293656;28;20085;-77
2022/01/14 12:10:07;;;;;;;40.80;17.33;;;14.40;38.20;;;;;;6288894;28;20025;-78
2022/01/14 12:13:49;;;;;;;32.72;13.75;;;13.50;39.80;;;;;;6294359;28;20024;-78
2022/01/14 12:17:10;;;;;;;46.22;18.60;;;12.70;41.10;;;;;;6292693;28;20039;-77
2022/01/14 12:20:17;;;;;;;50.45;19.52;;;12.00;42.50;;;;;;6293603;28;20103;-76
2022/01/14 12:23:18;;;;;;;50.83;21.73;;;11.30;43.60;;;;;;6310257;28;20048;-77
2022/01/14 12:26:20;;;;;;;35.33;15.10;;;10.90;44.50;;;;;;6301549;28;20027;-77
2022/01/14 12:29:32;;;;;;;31.52;13.35;;;10.60;45.20;;;;;;6318551;28;20111;-76
2022/01/14 12:32:36;;;;;;;20.95;10.90;;;10.40;45.80;;;;;;6320324;28;20031;-76
2022/01/14 12:35:38;;;;;;;23.13;9.95;;;10.20;46.30;;;;;;6320153;28;20407;-78
2022/01/14 12:38:40;;;;;;;23.00;10.27;;;10.10;46.70;;;;;;6301139;28;20044;-77
2022/01/14 12:41:41;;;;;;;22.48;9.80;;;10.00;47.00;;;;;;6317785;28;20028;-78
2022/01/14 12:44:45;;;;;;;26.80;9.95;;;9.80;47.30;;;;;;6301499;28;20039;-77
2022/01/14 12:47:46;;;;;;;23.45;10.25;;;9.80;47.50;;;;;;6285381;28;20071;-77
2022/01/14 12:50:48;;;;;;;26.10;10.32;;;9.70;47.70;;;;;;6298440;28;20020;-78
2022/01/14 12:53:57;;;;;;;25.27;9.15;;;9.70;47.90;;;;;;6299008;28;20047;-78
2022/01/14 12:56:58;;;;;;;26.30;9.27;;;9.60;48.00;;;;;;6294906;28;20056;-76
2022/01/14 12:59:59;;;;;;;29.73;13.05;;;9.60;48.10;;;;;;6301381;28;20044;-77
2022/01/14 13:03:01;;;;;;;26.15;11.40;;;9.60;48.30;;;;;;6318459;28;20028;-77
2022/01/14 13:06:02;;;;;;;34.20;12.88;;;9.60;48.60;;;;;;6317915;28;20028;-77
2022/01/14 13:09:03;;;;;;;25.02;10.68;;;9.60;48.40;;;;;;6316849;28;20030;-78
2022/01/14 13:12:04;;;;;;;16.48;7.25;;;9.60;48.40;;;;;;6300535;28;20028;-77
2022/01/14 13:15:09;;;;;;;18.00;7.53;;;9.70;48.60;;;;;;6283993;28;20036;-77
2022/01/14 13:18:20;;;;;;;12.52;6.28;;;9.60;48.50;;;;;;6318707;28;20039;-78
2022/01/14 13:21:21;;;;;;;23.40;9.45;;;9.60;48.60;;;;;;6300892;28;20024;-77
2022/01/14 13:24:31;;;;;;;28.13;8.75;;;9.60;48.70;;;;;;6300040;28;20064;-76
2022/01/14 13:27:33;;;;;;;20.27;7.10;;;9.60;48.90;;;;;;6316864;28;20032;-78
2022/01/14 13:30:39;;;;;;;17.98;8.35;;;9.70;49.00;;;;;;6316904;28;20047;-78
2022/01/14 13:33:40;;;;;;;29.13;8.48;;;9.70;49.10;;;;;;6318578;28;20032;-76
2022/01/14 13:36:43;;;;;;;18.23;8.13;;;9.70;49.10;;;;;;6300677;28;20115;-76
2022/01/14 13:39:58;;;;;;;18.45;7.03;;;9.70;49.20;;;;;;6298235;28;20048;-76
2022/01/14 13:43:04;;;;;;;21.05;6.53;;;9.70;49.30;;;;;;6283811;28;20036;-76
2022/01/14 13:46:13;;;;;;;17.17;6.68;;;9.70;49.30;;;;;;6318888;28;20042;-76
2022/01/14 13:49:21;;;;;;;16.98;7.10;;;9.60;49.20;;;;;;6300429;28;20111;-76
2022/01/14 13:52:30;;;;;;;20.98;9.10;;;9.70;49.30;;;;;;6311548;28;20092;-77
2022/01/14 13:55:33;;;;;;;19.65;8.95;;;9.70;49.40;;;;;;6283322;28;20423;-77
2022/01/14 13:58:36;;;;;;;21.42;8.80;;;9.80;49.40;;;;;;6317723;28;20504;-78
2022/01/14 14:01:48;;;;;;;19.25;8.13;;;9.80;49.40;;;;;;6317583;28;20024;-76
2022/01/14 14:04:53;;;;;;;24.73;10.32;;;9.80;49.40;;;;;;6317937;28;20024;-77
2022/01/14 14:08:14;;;;;;;19.92;9.25;;;9.80;49.40;;;;;;6296106;28;20077;-77
2022/01/14 14:18:08;;;;;;;34.65;11.75;;;9.90;49.50;;;;;;6316619;28;20407;-77
2022/01/14 14:21:15;;;;;;;30.67;11.20;;;9.90;50.20;;;;;;6312261;28;20031;-78
2022/01/14 14:24:16;;;;;;;24.88;10.88;;;9.90;49.60;;;;;;6317250;28;20048;-76
2022/01/14 14:27:19;;;;;;;35.17;13.50;;;10.10;49.70;;;;;;6316881;28;20570;-76
2022/01/14 14:30:21;;;;;;;27.15;12.45;;;9.90;49.80;;;;;;6299899;28;20081;-77
2022/01/14 14:33:23;;;;;;;33.90;12.43;;;9.90;49.80;;;;;;6317903;28;20192;-77
2022/01/14 14:36:27;;;;;;;30.42;12.73;;;9.90;49.90;;;;;;6317699;28;20020;-77
2022/01/14 14:39:28;;;;;;;29.60;12.27;;;9.90;50.00;;;;;;6316670;28;20043;-77
2022/01/14 14:42:29;;;;;;;29.33;12.23;;;9.90;50.00;;;;;;6315527;28;20020;-80
2022/01/14 14:45:30;;;;;;;37.58;14.13;;;10.00;50.00;;;;;;6299134;28;20028;-77
2022/01/14 14:48:31;;;;;;;28.02;12.48;;;10.00;50.10;;;;;;6295582;28;20038;-77
2022/01/14 14:51:33;;;;;;;26.30;11.35;;;10.00;50.10;;;;;;6314699;28;20089;-77
2022/01/14 14:54:34;;;;;;;26.52;10.07;;;10.00;50.00;;;;;;6280467;28;20047;-77
2022/01/14 14:57:36;;;;;;;26.42;8.82;;;10.00;50.10;;;;;;6316713;28;20467;-77
2022/01/14 15:00:38;;;;;;;21.75;8.77;;;10.10;50.00;;;;;;6298911;28;20055;-79
2022/01/14 15:03:40;;;;;;;19.30;8.70;;;10.10;49.90;;;;;;6298062;28;20159;-77
2022/01/14 15:06:42;;;;;;;19.42;8.68;;;10.10;49.80;;;;;;6321082;28;20558;-77
2022/01/14 15:09:43;;;;;;;32.03;10.68;;;10.10;49.90;;;;;;6286703;28;20077;-79
2022/01/14 15:12:44;;;;;;;20.88;9.70;;;10.10;49.90;;;;;;6323395;28;20016;-76
2022/01/14 15:19:10;;;;;;;28.95;12.57;;;10.10;49.90;;;;;;6219764;28;20034;-77
2022/01/14 15:22:11;;;;;;;24.98;11.50;;;10.10;49.80;;;;;;6221119;28;20054;-76
2022/01/14 15:25:12;;;;;;;28.60;11.00;;;10.10;49.90;;;;;;6239644;28;20406;-77
2022/01/14 15:28:14;;;;;;;34.40;10.90;;;10.10;50.00;;;;;;6224505;28;20049;-77
2022/01/14 15:31:15;;;;;;;27.98;12.23;;;10.00;50.10;;;;;;6219552;28;20097;-78
2022/01/14 15:34:16;;;;;;;28.70;11.45;;;10.00;50.10;;;;;;6216826;28;20650;-77
2022/01/14 15:37:17;;;;;;;24.90;11.07;;;10.00;50.20;;;;;;6226537;28;20111;-76
2022/01/14 15:40:23;;;;;;;27.92;11.90;;;10.00;50.30;;;;;;6226452;28;20099;-78
2022/01/14 15:43:26;;;;;;;27.10;11.68;;;9.90;50.30;;;;;;6231265;28;20047;-78
2022/01/14 15:46:28;;;;;;;28.00;13.07;;;9.90;50.40;;;;;;6232395;28;20465;-77
2022/01/14 15:49:29;;;;;;;32.17;12.02;;;9.90;50.50;;;;;;6236798;28;20034;-77
2022/01/14 15:52:30;;;;;;;34.83;11.43;;;9.80;50.50;;;;;;6220629;28;20026;-77
2022/01/14 15:55:31;;;;;;;23.85;10.07;;;9.80;50.60;;;;;;6235516;28;20458;-79
2022/01/14 15:58:34;;;;;;;27.30;11.82;;;9.80;50.80;;;;;;6280546;28;20036;-77
2022/01/14 16:01:35;;;;;;;37.88;14.40;;;9.80;50.70;;;;;;6294615;28;20441;-77
2022/01/14 16:04:38;;;;;;;30.70;10.77;;;9.80;50.80;;;;;;6277816;28;20031;-78
2022/01/14 16:07:39;;;;;;;27.95;11.65;;;9.70;50.70;;;;;;6290167;28;20127;-78
2022/01/14 16:10:41;;;;;;;28.35;11.63;;;9.70;50.80;;;;;;6283744;28;20021;-77
2022/01/14 16:13:43;;;;;;;32.35;11.55;;;9.70;50.90;;;;;;6281538;28;20086;-78
2022/01/14 16:16:44;;;;;;;30.75;12.95;;;9.70;50.90;;;;;;6264051;28;20141;-77
2022/01/14 16:19:45;;;;;;;30.08;10.70;;;9.70;51.00;;;;;;6285264;28;20441;-78